Time;durP1;ratioP1;P1;durP2;ratioP2;P2;SDS_P1;SDS_P2;PMS_P1;PMS_P2;Temp;Humidity;BMP_temperature;BMP_pressure;BME280_temperature;BME280_humidity;BME280_pressure;Samples;Min_cycle;Max_cycle;Signal;HPM_P1;HPM_P2
2022/03/28 00:01:54;;;;;;;16.30;10.90;;;11.30;38.50;;;;;;5096235;28;20567;-46
2022/03/28 00:04:21;;;;;;;13.10;11.13;;;11.30;38.60;;;;;;5097546;28;20407;-45
2022/03/28 00:06:46;;;;;;;13.63;11.70;;;11.30;38.70;;;;;;5114263;28;20422;-46
2022/03/28 00:09:12;;;;;;;12.70;10.80;;;11.20;38.70;;;;;;5115396;28;20172;-46
2022/03/28 00:11:38;;;;;;;15.60;10.77;;;11.20;38.80;;;;;;5116812;28;20268;-46
2022/03/28 00:14:03;;;;;;;15.10;10.90;;;11.10;38.90;;;;;;5115230;28;20271;-46
2022/03/28 00:16:29;;;;;;;14.53;11.50;;;11.10;38.90;;;;;;5117289;28;20461;-46
2022/03/28 00:18:55;;;;;;;13.57;10.90;;;11.00;39.00;;;;;;5115603;28;20232;-46
2022/03/28 00:21:21;;;;;;;15.33;11.90;;;11.00;39.00;;;;;;5115284;28;20415;-46
2022/03/28 00:23:47;;;;;;;12.63;11.30;;;10.90;39.00;;;;;;5113446;28;20199;-46
2022/03/28 00:26:12;;;;;;;14.23;11.60;;;10.90;39.10;;;;;;5115085;28;20177;-46
2022/03/28 00:28:38;;;;;;;13.60;11.93;;;10.90;39.20;;;;;;5115296;28;20262;-46
2022/03/28 00:31:03;;;;;;;14.43;11.53;;;10.80;39.20;;;;;;5116205;28;20479;-46
2022/03/28 00:33:29;;;;;;;14.80;11.23;;;10.80;39.20;;;;;;5117206;28;20236;-46
2022/03/28 00:35:55;;;;;;;15.20;11.40;;;10.80;39.30;;;;;;5115260;28;20660;-45
2022/03/28 00:38:21;;;;;;;16.10;12.10;;;10.80;39.40;;;;;;5118305;28;20448;-46
2022/03/28 00:40:46;;;;;;;14.30;11.80;;;10.70;39.40;;;;;;5115763;28;20273;-46
2022/03/28 00:43:12;;;;;;;18.20;12.90;;;10.70;39.50;;;;;;5117340;28;20585;-45
2022/03/28 00:45:39;;;;;;;14.17;11.10;;;10.60;39.50;;;;;;5116560;28;20187;-46
2022/03/28 00:48:06;;;;;;;15.20;12.00;;;10.60;39.60;;;;;;5106136;28;20277;-46
2022/03/28 00:50:32;;;;;;;16.20;12.00;;;10.60;39.70;;;;;;5095468;28;20434;-45
2022/03/28 00:52:59;;;;;;;12.33;10.47;;;10.50;39.70;;;;;;5097548;28;20415;-46
2022/03/28 00:55:25;;;;;;;13.43;11.07;;;10.50;39.80;;;;;;5096145;28;20531;-45
2022/03/28 00:57:50;;;;;;;14.07;11.33;;;10.40;39.90;;;;;;5097379;28;20684;-46
2022/03/28 01:00:17;;;;;;;13.13;10.67;;;10.40;40.00;;;;;;5096918;28;20423;-46
2022/03/28 01:02:43;;;;;;;12.53;10.70;;;10.40;40.10;;;;;;5095486;28;20181;-45
2022/03/28 01:05:10;;;;;;;16.10;11.23;;;10.30;40.20;;;;;;5098168;28;20411;-46
2022/03/28 01:07:37;;;;;;;14.33;10.50;;;10.30;40.20;;;;;;5099782;28;20497;-46
2022/03/28 01:10:03;;;;;;;15.10;11.30;;;10.30;40.30;;;;;;5119542;28;20426;-46
2022/03/28 01:12:32;;;;;;;13.57;12.07;;;10.20;40.20;;;;;;5121229;28;20724;-46
2022/03/28 01:14:58;;;;;;;18.23;11.83;;;10.20;40.40;;;;;;5119650;28;20472;-46
2022/03/28 01:20:09;;;;;;;15.00;10.77;;;10.10;40.50;;;;;;5120368;28;20413;-45
2022/03/28 01:22:35;;;;;;;13.03;11.30;;;10.10;40.50;;;;;;5118423;28;20414;-45
2022/03/28 01:25:04;;;;;;;12.80;10.70;;;10.10;40.60;;;;;;5119239;28;20514;-45
2022/03/28 01:27:30;;;;;;;12.27;11.07;;;10.00;40.70;;;;;;5119320;28;21528;-45
2022/03/28 01:29:56;;;;;;;13.20;10.80;;;10.00;40.80;;;;;;5120910;28;20414;-44
2022/03/28 01:32:22;;;;;;;14.20;10.50;;;10.00;40.90;;;;;;5119196;28;20420;-46
2022/03/28 01:34:47;;;;;;;14.17;11.50;;;9.90;41.70;;;;;;5119865;28;20752;-45
2022/03/28 01:37:13;;;;;;;14.50;11.17;;;9.90;41.70;;;;;;5119856;28;20173;-45
2022/03/28 01:39:39;;;;;;;15.80;12.73;;;9.90;41.80;;;;;;5120039;28;20579;-46
2022/03/28 01:42:05;;;;;;;13.47;10.90;;;9.90;41.90;;;;;;5104356;28;20172;-45
2022/03/28 01:45:12;;;;;;;17.53;11.50;;;9.80;41.90;;;;;;5099357;28;20172;-45
2022/03/28 01:47:38;;;;;;;18.80;11.33;;;9.70;42.00;;;;;;5116411;28;20439;-45
2022/03/28 01:50:04;;;;;;;14.40;10.33;;;9.70;42.10;;;;;;5119467;28;20402;-45
2022/03/28 01:52:30;;;;;;;14.90;11.47;;;9.70;42.20;;;;;;5118141;28;20433;-46
2022/03/28 01:54:55;;;;;;;13.33;10.27;;;9.70;42.20;;;;;;5117435;28;20465;-46
2022/03/28 01:57:21;;;;;;;15.00;11.03;;;9.70;42.30;;;;;;5118322;28;20566;-46
2022/03/28 01:59:47;;;;;;;15.40;11.70;;;9.60;42.30;;;;;;5120000;28;20769;-46
2022/03/28 02:02:12;;;;;;;11.13;9.40;;;9.60;42.40;;;;;;5117569;28;20521;-45
2022/03/28 02:04:38;;;;;;;16.47;11.63;;;9.50;42.40;;;;;;5119942;28;20259;-46
2022/03/28 02:07:03;;;;;;;15.80;11.77;;;9.60;42.50;;;;;;5119951;28;20226;-45
2022/03/28 02:09:29;;;;;;;13.93;10.70;;;9.50;42.50;;;;;;5117947;28;20627;-46
2022/03/28 02:11:55;;;;;;;13.43;11.30;;;9.50;42.60;;;;;;5120502;28;20199;-45
2022/03/28 02:14:21;;;;;;;13.50;11.23;;;9.50;42.70;;;;;;5118902;28;20168;-46
2022/03/28 02:16:46;;;;;;;11.67;10.43;;;9.40;42.70;;;;;;5118597;28;20259;-45
2022/03/28 02:19:12;;;;;;;13.53;10.80;;;9.50;42.80;;;;;;5118479;28;20168;-46
2022/03/28 02:21:38;;;;;;;15.57;11.53;;;9.40;42.80;;;;;;5119321;28;20500;-46
2022/03/28 02:24:03;;;;;;;20.97;11.23;;;9.40;42.80;;;;;;5119540;27;20195;-46
2022/03/28 02:26:29;;;;;;;14.77;11.10;;;9.40;42.90;;;;;;5118499;28;20621;-45
2022/03/28 02:28:55;;;;;;;14.27;11.40;;;9.30;43.00;;;;;;5119104;28;20417;-45
2022/03/28 02:31:20;;;;;;;14.80;12.93;;;9.30;43.10;;;;;;5117805;28;20179;-45
2022/03/28 02:33:46;;;;;;;12.90;11.50;;;9.20;43.10;;;;;;5119892;28;20198;-46
2022/03/28 02:36:12;;;;;;;14.20;11.53;;;9.20;43.20;;;;;;5117239;28;20228;-46
2022/03/28 02:38:38;;;;;;;18.47;12.03;;;9.20;43.20;;;;;;5119421;28;20499;-45
2022/03/28 02:41:03;;;;;;;14.63;10.47;;;9.20;43.40;;;;;;5118103;28;20216;-44
2022/03/28 02:43:29;;;;;;;13.53;10.30;;;9.10;43.40;;;;;;5118888;28;20509;-44
2022/03/28 02:45:54;;;;;;;18.17;12.10;;;9.10;43.40;;;;;;5117914;28;20184;-44
2022/03/28 02:48:20;;;;;;;13.53;10.90;;;9.10;43.50;;;;;;5119242;28;20563;-44
2022/03/28 02:50:47;;;;;;;13.13;10.93;;;9.00;43.50;;;;;;5117646;28;20207;-44
2022/03/28 02:53:12;;;;;;;12.70;10.57;;;9.00;43.60;;;;;;5119037;28;20177;-44
2022/03/28 02:55:38;;;;;;;14.70;10.83;;;9.00;43.70;;;;;;5116790;28;20480;-45
2022/03/28 02:58:04;;;;;;;16.70;12.03;;;9.00;43.80;;;;;;5118638;28;20262;-46
2022/03/28 03:00:30;;;;;;;12.67;10.57;;;9.00;43.90;;;;;;5116606;28;20431;-44
2022/03/28 03:02:56;;;;;;;13.43;11.37;;;8.90;43.80;;;;;;5118489;28;20528;-44
2022/03/28 03:05:23;;;;;;;14.20;11.37;;;8.90;43.90;;;;;;5117289;28;20176;-44
2022/03/28 03:07:49;;;;;;;15.53;11.40;;;8.80;43.90;;;;;;5119203;28;20471;-44
2022/03/28 03:10:15;;;;;;;17.70;13.67;;;8.80;44.00;;;;;;5117477;28;20422;-45
2022/03/28 03:12:41;;;;;;;17.23;12.07;;;8.80;44.10;;;;;;5118578;28;20877;-45
2022/03/28 03:15:07;;;;;;;16.80;12.07;;;8.80;44.70;;;;;;5116417;28;20501;-44
2022/03/28 03:17:33;;;;;;;15.10;11.13;;;8.70;44.30;;;;;;5119047;28;20194;-45
2022/03/28 03:19:58;;;;;;;15.73;11.30;;;8.70;44.40;;;;;;5115658;28;20525;-45
2022/03/28 03:22:24;;;;;;;15.57;11.73;;;8.70;44.60;;;;;;5117679;28;20472;-45
2022/03/28 03:24:50;;;;;;;15.30;11.17;;;8.70;44.60;;;;;;5115108;28;20517;-45
2022/03/28 03:27:15;;;;;;;18.77;12.37;;;8.60;44.60;;;;;;5117492;28;20251;-46
2022/03/28 03:29:41;;;;;;;16.37;12.13;;;8.60;44.80;;;;;;5115515;28;20169;-44
2022/03/28 03:32:07;;;;;;;13.33;11.80;;;8.60;44.80;;;;;;5117739;28;20164;-44
2022/03/28 03:34:34;;;;;;;13.70;11.60;;;8.60;44.80;;;;;;5116295;28;20423;-43
2022/03/28 03:37:00;;;;;;;17.37;13.30;;;8.60;44.80;;;;;;5115899;28;20466;-44
2022/03/28 03:39:26;;;;;;;14.43;10.90;;;8.50;44.90;;;;;;5115199;28;20407;-44
2022/03/28 03:41:55;;;;;;;13.53;11.40;;;8.60;45.10;;;;;;5115836;28;20424;-44
2022/03/28 03:44:21;;;;;;;15.20;13.00;;;8.50;45.10;;;;;;5115504;28;20170;-44
2022/03/28 03:46:47;;;;;;;14.07;11.33;;;8.50;45.20;;;;;;5115085;28;20422;-45
2022/03/28 03:49:13;;;;;;;14.63;11.70;;;8.50;45.30;;;;;;5114857;28;20412;-44
2022/03/28 03:51:39;;;;;;;13.50;10.80;;;8.50;45.40;;;;;;5115978;28;20422;-45
2022/03/28 03:54:05;;;;;;;17.67;11.70;;;8.40;45.40;;;;;;5116583;28;20454;-44
2022/03/28 03:56:31;;;;;;;14.30;12.10;;;8.40;45.40;;;;;;5114133;28;20469;-45
2022/03/28 03:58:57;;;;;;;13.87;11.27;;;8.40;45.50;;;;;;5114958;28;20417;-45
2022/03/28 04:01:23;;;;;;;15.53;10.90;;;8.30;45.60;;;;;;5115291;28;20425;-45
2022/03/28 04:03:49;;;;;;;13.67;11.03;;;8.30;45.70;;;;;;5114177;28;20417;-47
2022/03/28 04:06:14;;;;;;;15.70;11.93;;;8.30;45.70;;;;;;5112991;28;20168;-47
2022/03/28 04:08:40;;;;;;;12.37;10.67;;;8.30;45.80;;;;;;5114926;28;20184;-47
2022/03/28 04:11:06;;;;;;;14.60;11.20;;;8.30;45.90;;;;;;5113854;28;20200;-47
2022/03/28 04:13:33;;;;;;;16.77;12.63;;;8.20;46.00;;;;;;5113777;28;20425;-47
2022/03/28 04:16:00;;;;;;;14.60;10.13;;;8.20;46.10;;;;;;5113802;28;20465;-47
2022/03/28 04:18:27;;;;;;;13.73;11.27;;;8.30;46.00;;;;;;5113891;28;20784;-47
2022/03/28 04:20:53;;;;;;;15.60;11.80;;;8.30;45.90;;;;;;5115011;28;20410;-47
2022/03/28 04:23:20;;;;;;;15.00;12.53;;;8.30;45.90;;;;;;5114684;28;20425;-47
2022/03/28 04:25:46;;;;;;;12.33;10.63;;;8.30;46.00;;;;;;5116209;28;20414;-46
2022/03/28 04:28:12;;;;;;;17.77;12.20;;;8.20;46.10;;;;;;5114867;28;20430;-47
2022/03/28 04:30:37;;;;;;;13.43;11.47;;;8.20;46.30;;;;;;5115161;28;20183;-47
2022/03/28 04:33:04;;;;;;;18.03;12.30;;;8.20;46.40;;;;;;5113298;28;20186;-47
2022/03/28 04:35:30;;;;;;;14.60;10.93;;;8.10;46.40;;;;;;5114072;28;20478;-47
2022/03/28 04:37:56;;;;;;;16.40;12.33;;;8.10;46.50;;;;;;5113787;28;20418;-47
2022/03/28 04:40:21;;;;;;;15.93;12.13;;;8.10;46.60;;;;;;5116145;27;20450;-47
2022/03/28 04:42:48;;;;;;;16.63;12.87;;;8.10;47.10;;;;;;5117544;28;20460;-47
2022/03/28 04:45:14;;;;;;;17.00;11.23;;;8.10;46.70;;;;;;5117747;28;20179;-47
2022/03/28 04:47:41;;;;;;;13.17;11.17;;;8.00;46.70;;;;;;5118343;28;20440;-47
2022/03/28 04:50:08;;;;;;;16.77;11.20;;;8.00;46.80;;;;;;5116460;28;20500;-47
2022/03/28 04:52:34;;;;;;;15.67;11.63;;;8.00;46.80;;;;;;5114448;28;20428;-47
2022/03/28 04:54:59;;;;;;;15.43;11.93;;;8.00;46.80;;;;;;5117838;28;20457;-47
2022/03/28 04:57:25;;;;;;;14.70;12.17;;;8.00;46.90;;;;;;5115847;28;20715;-47
2022/03/28 04:59:51;;;;;;;14.90;11.80;;;8.00;47.00;;;;;;5117523;28;20771;-47
2022/03/28 05:02:17;;;;;;;13.33;11.50;;;7.90;47.00;;;;;;5114632;28;20272;-47
2022/03/28 05:04:42;;;;;;;14.27;11.63;;;7.90;47.10;;;;;;5114767;28;20276;-47
2022/03/28 05:07:08;;;;;;;14.10;10.77;;;7.90;47.20;;;;;;5111879;28;20570;-47
2022/03/28 05:09:34;;;;;;;15.73;11.30;;;7.90;47.20;;;;;;5114392;28;20182;-47
2022/03/28 05:11:59;;;;;;;17.10;11.60;;;7.80;47.30;;;;;;5112233;28;20187;-47
2022/03/28 05:14:26;;;;;;;18.80;10.63;;;7.80;47.30;;;;;;5113069;28;20183;-47
2022/03/28 05:16:52;;;;;;;14.03;10.30;;;7.80;47.40;;;;;;5110311;28;20606;-47
2022/03/28 05:19:17;;;;;;;15.20;11.20;;;7.80;48.20;;;;;;5109823;28;20428;-47
2022/03/28 05:21:43;;;;;;;17.33;12.33;;;7.90;48.20;;;;;;5110673;28;20233;-47
2022/03/28 05:24:09;;;;;;;15.40;10.53;;;7.90;48.20;;;;;;5110431;28;20200;-47
2022/03/28 05:26:35;;;;;;;20.63;11.93;;;8.00;48.00;;;;;;5110713;28;20459;-47
2022/03/28 05:29:01;;;;;;;29.93;12.50;;;8.00;47.90;;;;;;5113650;28;20190;-48
2022/03/28 05:31:27;;;;;;;16.33;12.60;;;8.00;47.90;;;;;;5108359;28;20176;-47
2022/03/28 05:33:52;;;;;;;15.83;11.90;;;7.90;47.80;;;;;;5112852;28;20493;-48
2022/03/28 05:36:18;;;;;;;18.80;13.07;;;8.00;47.90;;;;;;5112425;28;20353;-51
2022/03/28 05:38:44;;;;;;;14.10;12.60;;;7.90;47.80;;;;;;5111212;28;20176;-48
2022/03/28 05:41:10;;;;;;;15.03;12.57;;;8.00;48.00;;;;;;5108089;28;20653;-48
2022/03/28 05:43:37;;;;;;;15.40;11.23;;;8.00;48.00;;;;;;5111095;28;20513;-48
2022/03/28 05:46:04;;;;;;;14.90;11.53;;;8.00;48.10;;;;;;5112870;28;20408;-48
2022/03/28 05:48:31;;;;;;;15.50;11.43;;;8.00;48.10;;;;;;5112854;28;20883;-48
2022/03/28 05:50:56;;;;;;;18.83;11.87;;;8.00;48.10;;;;;;5113137;28;20410;-48
2022/03/28 05:53:22;;;;;;;15.53;11.73;;;8.10;48.20;;;;;;5108043;28;20184;-48
2022/03/28 05:55:48;;;;;;;14.67;12.60;;;8.10;48.20;;;;;;5110478;28;20242;-48
2022/03/28 05:58:14;;;;;;;17.47;12.10;;;8.20;48.60;;;;;;5105870;28;20566;-48
2022/03/28 06:00:40;;;;;;;18.03;12.07;;;8.30;48.20;;;;;;5098725;28;20271;-48
2022/03/28 06:03:06;;;;;;;17.40;12.40;;;8.40;48.20;;;;;;5109781;28;20426;-48
2022/03/28 06:05:34;;;;;;;15.33;12.30;;;8.50;48.00;;;;;;5110070;28;20723;-48
2022/03/28 06:08:00;;;;;;;17.57;13.33;;;8.70;47.90;;;;;;5114541;28;20499;-48
2022/03/28 06:10:26;;;;;;;15.27;12.23;;;8.80;47.70;;;;;;5113884;28;20422;-48
2022/03/28 06:12:52;;;;;;;14.80;12.00;;;9.00;47.50;;;;;;5110123;28;20444;-48
2022/03/28 06:15:18;;;;;;;14.50;11.27;;;9.20;47.30;;;;;;5111668;28;20552;-48
2022/03/28 06:17:44;;;;;;;15.27;11.80;;;9.30;47.10;;;;;;5108746;28;20263;-48
2022/03/28 06:20:11;;;;;;;11.50;9.23;;;9.50;47.00;;;;;;5108652;28;20628;-48
2022/03/28 06:22:37;;;;;;;10.40;7.00;;;9.80;51.40;;;;;;5092556;28;20500;-48
2022/03/28 06:25:04;;;;;;;9.63;7.87;;;10.30;57.60;;;;;;5096844;28;21056;-48
2022/03/28 06:27:30;;;;;;;12.03;7.00;;;11.00;60.70;;;;;;5112957;28;20184;-48
2022/03/28 06:29:55;;;;;;;14.27;10.40;;;11.50;61.00;;;;;;5116006;28;20700;-46
2022/03/28 06:32:21;;;;;;;14.20;9.93;;;11.90;55.60;;;;;;5114136;28;20275;-48
2022/03/28 06:34:48;;;;;;;12.17;10.87;;;12.20;51.20;;;;;;5114000;28;20219;-48
2022/03/28 06:37:16;;;;;;;15.07;10.90;;;12.30;48.80;;;;;;5110716;28;20445;-48
2022/03/28 06:39:42;;;;;;;15.23;10.70;;;12.40;47.50;;;;;;5094442;28;20419;-48
2022/03/28 06:42:08;;;;;;;19.40;11.40;;;12.50;46.50;;;;;;5098860;28;20472;-49
2022/03/28 06:44:34;;;;;;;14.00;11.90;;;12.60;45.60;;;;;;5103819;28;20784;-48
2022/03/28 06:47:00;;;;;;;14.30;11.70;;;12.60;44.80;;;;;;5113971;28;20820;-48
2022/03/28 06:49:26;;;;;;;13.53;11.90;;;12.80;44.20;;;;;;5112764;28;20398;-48
2022/03/28 06:51:52;;;;;;;18.70;12.60;;;12.90;43.60;;;;;;5114906;28;20843;-48
2022/03/28 06:54:19;;;;;;;17.27;12.80;;;13.00;43.00;;;;;;5113390;28;20492;-48
2022/03/28 06:56:46;;;;;;;20.70;12.80;;;13.20;42.60;;;;;;5112252;28;20298;-48
2022/03/28 06:59:12;;;;;;;15.57;12.07;;;13.40;42.20;;;;;;5113629;28;20410;-48
2022/03/28 07:01:38;;;;;;;15.00;13.40;;;13.60;41.80;;;;;;5112968;28;20426;-48
2022/03/28 07:04:05;;;;;;;16.10;13.20;;;13.70;41.30;;;;;;5112119;28;20421;-49
2022/03/28 07:06:31;;;;;;;20.00;13.40;;;13.90;40.90;;;;;;5112209;28;20422;-48
2022/03/28 07:08:57;;;;;;;16.17;12.40;;;14.10;40.60;;;;;;5113584;28;21061;-48
2022/03/28 07:11:22;;;;;;;15.37;12.47;;;14.20;40.40;;;;;;5111063;28;20463;-46
2022/03/28 07:13:48;;;;;;;15.97;13.20;;;14.40;40.10;;;;;;5112110;28;20200;-46
2022/03/28 07:16:14;;;;;;;15.83;12.37;;;14.70;39.90;;;;;;5112610;28;20231;-46
2022/03/28 07:18:41;;;;;;;15.93;12.53;;;14.90;39.40;;;;;;5112198;28;20180;-47
2022/03/28 07:21:07;;;;;;;15.53;13.10;;;15.10;38.90;;;;;;5109838;28;20172;-47
2022/03/28 07:23:32;;;;;;;18.37;13.53;;;15.30;38.40;;;;;;5111771;28;20425;-47
2022/03/28 07:25:58;;;;;;;15.03;12.70;;;15.40;37.90;;;;;;5090167;28;20514;-47
2022/03/28 07:28:24;;;;;;;15.83;12.47;;;15.60;37.60;;;;;;5107608;28;20184;-47
2022/03/28 07:30:49;;;;;;;13.97;11.93;;;15.80;37.20;;;;;;5108011;28;20183;-48
2022/03/28 07:33:15;;;;;;;18.83;12.37;;;16.00;37.00;;;;;;5107886;28;20191;-46
2022/03/28 07:35:41;;;;;;;17.33;13.30;;;16.30;36.80;;;;;;5037669;28;1967152;-47
2022/03/28 07:38:08;;;;;;;16.53;12.37;;;16.60;36.60;;;;;;5108243;28;20901;-47
2022/03/28 07:40:38;;;;;;;14.73;11.67;;;16.80;36.20;;;;;;5106253;28;20211;-46
2022/03/28 07:43:05;;;;;;;10.80;8.73;;;17.20;36.60;;;;;;5110835;28;20573;-47
2022/03/28 07:45:31;;;;;;;12.17;8.57;;;17.50;39.30;;;;;;5110147;28;20490;-47
2022/03/28 07:47:57;;;;;;;9.87;8.17;;;18.00;40.50;;;;;;5108830;28;20422;-47
2022/03/28 07:50:23;;;;;;;14.03;10.07;;;18.50;40.90;;;;;;5110374;28;20406;-46
2022/03/28 07:52:50;;;;;;;13.80;9.60;;;18.90;39.50;;;;;;5110023;28;20438;-47
2022/03/28 07:55:17;;;;;;;14.00;9.40;;;19.20;38.20;;;;;;5098617;28;20208;-47
2022/03/28 07:57:43;;;;;;;12.30;9.40;;;19.60;37.60;;;;;;5093748;28;20420;-47
2022/03/28 08:00:14;;;;;;;11.50;9.43;;;19.90;37.50;;;;;;5113911;28;20518;-47
2022/03/28 08:02:40;;;;;;;12.27;11.07;;;20.20;37.50;;;;;;5113483;28;20423;-48
2022/03/28 08:05:07;;;;;;;12.50;11.07;;;20.50;36.50;;;;;;5114490;28;20427;-46
2022/03/28 08:07:33;;;;;;;12.67;11.40;;;20.80;35.60;;;;;;5112151;28;20756;-48
2022/03/28 08:09:59;;;;;;;12.00;10.80;;;21.10;35.00;;;;;;5111614;28;20432;-48
2022/03/28 08:12:25;;;;;;;12.97;11.77;;;21.40;35.00;;;;;;5095229;28;20448;-48
2022/03/28 08:14:51;;;;;;;12.83;11.30;;;21.70;34.40;;;;;;5101133;28;20418;-48
2022/03/28 08:17:20;;;;;;;12.53;10.07;;;22.00;33.90;;;;;;5112024;28;20179;-48
2022/03/28 08:19:46;;;;;;;12.50;10.60;;;22.30;33.70;;;;;;5094534;28;20781;-48
2022/03/28 08:22:13;;;;;;;15.23;11.57;;;22.60;33.60;;;;;;5089928;28;20430;-48
2022/03/28 08:24:38;;;;;;;12.70;10.40;;;22.90;33.20;;;;;;5093158;28;20789;-48
2022/03/28 08:27:04;;;;;;;17.50;11.80;;;23.20;33.00;;;;;;5101826;28;20459;-48
2022/03/28 08:29:32;;;;;;;14.67;12.50;;;23.40;32.30;;;;;;5102929;28;20260;-48
2022/03/28 08:32:00;;;;;;;15.70;13.17;;;23.70;31.40;;;;;;5105035;28;20241;-48
2022/03/28 08:34:26;;;;;;;13.43;12.07;;;24.00;30.70;;;;;;5101357;28;20428;-48
2022/03/28 08:36:52;;;;;;;15.27;13.67;;;24.30;30.40;;;;;;5103787;28;21089;-48
2022/03/28 08:39:18;;;;;;;15.53;13.50;;;24.60;30.10;;;;;;5102223;28;20180;-48
2022/03/28 08:41:47;;;;;;;14.87;13.30;;;24.90;29.60;;;;;;5099309;28;20203;-48
2022/03/28 08:44:12;;;;;;;19.10;14.20;;;25.20;29.20;;;;;;5102340;28;20892;-48
2022/03/28 08:46:41;;;;;;;17.40;15.80;;;25.50;28.90;;;;;;5099445;28;20433;-48
2022/03/28 08:49:07;;;;;;;16.50;13.50;;;25.80;28.30;;;;;;5100056;28;20533;-48
2022/03/28 08:51:33;;;;;;;16.60;15.00;;;26.20;28.30;;;;;;5101108;28;20433;-48
2022/03/28 08:53:59;;;;;;;16.23;14.63;;;26.40;28.00;;;;;;5100239;28;20973;-48
2022/03/28 08:56:25;;;;;;;21.10;14.73;;;26.60;27.70;;;;;;5099646;28;20203;-48
2022/03/28 08:58:50;;;;;;;14.03;12.67;;;27.00;27.70;;;;;;5102355;28;20169;-46
2022/03/28 09:01:17;;;;;;;13.23;11.93;;;27.30;27.50;;;;;;5102073;28;20442;-46
2022/03/28 09:03:47;;;;;;;15.70;14.10;;;27.60;27.70;;;;;;5102313;28;20556;-47
2022/03/28 09:06:31;;;;;;;13.77;12.47;;;27.90;27.40;;;;;;5096261;28;20442;-47
2022/03/28 09:09:26;;;;;;;14.57;13.10;;;28.20;27.40;;;;;;5100588;28;20437;-47
2022/03/28 09:12:04;;;;;;;13.50;12.30;;;28.50;27.10;;;;;;5095213;28;20435;-47
2022/03/28 09:14:34;;;;;;;16.57;13.47;;;28.80;27.00;;;;;;5100340;28;20503;-47
2022/03/28 09:17:11;;;;;;;13.73;12.33;;;29.10;27.00;;;;;;5099180;28;20463;-47
2022/03/28 09:19:44;;;;;;;18.10;13.00;;;29.20;26.70;;;;;;5097233;28;20425;-47
2022/03/28 09:22:12;;;;;;;15.67;12.83;;;29.50;26.70;;;;;;5098300;28;20441;-46
2022/03/28 09:24:38;;;;;;;13.63;12.43;;;29.70;26.50;;;;;;5100604;28;20504;-47
2022/03/28 09:27:16;;;;;;;14.63;13.33;;;30.00;26.70;;;;;;5103025;28;20555;-47
2022/03/28 09:29:56;;;;;;;16.13;14.53;;;30.40;26.60;;;;;;5102733;28;20176;-47
2022/03/28 09:32:23;;;;;;;13.93;12.47;;;30.70;26.00;;;;;;5103767;28;20879;-46
2022/03/28 09:35:03;;;;;;;14.83;13.37;;;31.00;25.90;;;;;;5100645;27;20436;-40
2022/03/28 09:37:29;;;;;;;11.70;10.50;;;31.30;25.70;;;;;;5100387;28;20405;-45
2022/03/28 09:39:55;;;;;;;13.23;12.03;;;31.40;26.20;;;;;;5102585;28;20435;-41
2022/03/28 09:42:20;;;;;;;13.30;11.90;;;31.60;26.20;;;;;;5102036;28;20393;-44
2022/03/28 09:44:53;;;;;;;12.53;11.33;;;31.50;25.80;;;;;;5101195;28;20182;-43
2022/03/28 09:47:23;;;;;;;13.33;10.73;;;31.60;26.00;;;;;;5101402;28;20240;-41
2022/03/28 09:49:53;;;;;;;14.73;11.90;;;31.70;26.60;;;;;;5104551;28;20388;-41
2022/03/28 09:52:29;;;;;;;12.50;11.30;;;31.80;26.60;;;;;;5101901;28;20411;-38
2022/03/28 09:54:56;;;;;;;13.03;11.37;;;31.90;26.40;;;;;;5102102;28;20471;-39
2022/03/28 09:57:24;;;;;;;11.90;10.80;;;31.90;26.20;;;;;;5102898;28;20459;-37
2022/03/28 09:59:51;;;;;;;12.10;11.03;;;32.10;26.40;;;;;;5103327;28;20393;-40
2022/03/28 10:02:18;;;;;;;13.60;12.10;;;32.30;26.80;;;;;;5105603;28;20744;-41
2022/03/28 10:04:49;;;;;;;12.30;11.13;;;32.50;25.80;;;;;;5098296;28;20389;-42
2022/03/28 10:07:16;;;;;;;13.43;12.07;;;32.70;25.70;;;;;;5092757;28;20730;-41
2022/03/28 10:09:42;;;;;;;12.20;11.10;;;32.90;25.60;;;;;;5094403;28;20508;-39
2022/03/28 10:12:08;;;;;;;11.30;10.30;;;33.10;25.60;;;;;;5093290;28;20783;-39
2022/03/28 10:14:35;;;;;;;15.13;13.60;;;33.40;25.70;;;;;;5092129;28;20562;-42
2022/03/28 10:17:03;;;;;;;14.57;13.13;;;33.50;25.10;;;;;;5090421;28;20518;-39
2022/03/28 10:19:32;;;;;;;12.83;11.63;;;33.70;25.30;;;;;;5091113;28;20867;-39
2022/03/28 10:21:59;;;;;;;11.93;10.90;;;33.80;25.40;;;;;;5093857;28;20421;-45
2022/03/28 10:24:25;;;;;;;14.10;12.67;;;34.00;25.40;;;;;;5092791;28;20378;-42
2022/03/28 10:26:56;;;;;;;13.57;12.27;;;34.10;24.20;;;;;;5091512;28;20473;-45
2022/03/28 10:29:23;;;;;;;12.87;11.73;;;34.30;24.30;;;;;;5088833;28;20431;-43
2022/03/28 10:31:55;;;;;;;13.60;12.40;;;34.50;24.10;;;;;;5101006;28;20485;-42
2022/03/28 10:34:45;;;;;;;14.43;13.23;;;34.50;23.10;;;;;;5088433;28;20447;-39
2022/03/28 10:38:00;;;;;;;12.97;11.80;;;34.60;23.00;;;;;;5104090;28;20906;-41
2022/03/28 10:40:29;;;;;;;13.00;11.80;;;34.70;22.60;;;;;;5093324;28;20441;-42
2022/03/28 10:43:02;;;;;;;15.13;13.73;;;34.60;23.00;;;;;;5107674;28;20928;-39
2022/03/28 10:45:36;;;;;;;15.87;14.27;;;34.70;22.70;;;;;;5111512;28;20753;-40
2022/03/28 10:48:03;;;;;;;14.57;13.17;;;34.80;22.00;;;;;;5110932;28;20412;-38
2022/03/28 10:50:35;;;;;;;14.10;12.90;;;34.70;20.90;;;;;;5111423;28;20779;-43
2022/03/28 10:53:33;;;;;;;15.07;13.87;;;34.60;20.40;;;;;;5110481;28;20438;-41
2022/03/28 10:56:05;;;;;;;13.57;12.37;;;34.50;19.60;;;;;;5112160;28;20493;-40
2022/03/28 10:58:36;;;;;;;14.70;13.50;;;34.70;20.80;;;;;;5114583;28;20421;-41
2022/03/28 11:01:11;;;;;;;13.83;12.70;;;34.90;20.50;;;;;;5092243;28;20416;-42
2022/03/28 11:03:58;;;;;;;16.33;14.83;;;35.10;20.50;;;;;;5109469;28;20433;-40
2022/03/28 11:06:46;;;;;;;15.00;13.80;;;34.80;19.50;;;;;;5109370;28;20827;-41
2022/03/28 11:09:12;;;;;;;15.50;13.47;;;35.00;20.10;;;;;;5107733;28;20817;-40
2022/03/28 11:12:00;;;;;;;13.67;12.47;;;35.20;20.50;;;;;;5110781;28;20679;-40
2022/03/28 11:14:53;;;;;;;15.50;14.20;;;35.10;21.90;;;;;;5109050;28;20425;-38
2022/03/28 11:17:24;;;;;;;13.17;11.97;;;35.30;21.30;;;;;;5109741;28;20438;-40
2022/03/28 11:20:14;;;;;;;14.60;13.30;;;35.40;21.90;;;;;;5108897;28;20462;-41
2022/03/28 11:22:47;;;;;;;14.10;13.00;;;35.60;21.30;;;;;;5088048;28;20568;-38
2022/03/28 11:25:42;;;;;;;16.10;14.70;;;35.70;21.40;;;;;;5105727;28;20440;-44
2022/03/28 11:28:19;;;;;;;14.03;12.83;;;35.60;20.90;;;;;;5108262;28;20418;-40
2022/03/28 11:30:44;;;;;;;16.10;14.47;;;35.90;21.20;;;;;;5109269;28;20849;-39
2022/03/28 11:33:11;;;;;;;15.57;13.87;;;36.10;21.10;;;;;;5108428;28;20627;-41
2022/03/28 11:35:38;;;;;;;14.87;13.57;;;36.30;21.30;;;;;;5107698;28;20565;-43
2022/03/28 11:38:04;;;;;;;14.70;13.57;;;36.50;20.90;;;;;;5108019;28;20441;-40
2022/03/28 11:40:38;;;;;;;15.20;13.70;;;36.50;21.30;;;;;;5111828;28;20417;-40
2022/03/28 11:43:04;;;;;;;16.47;15.00;;;36.60;21.40;;;;;;5106431;28;20457;-44
2022/03/28 11:45:31;;;;;;;16.13;14.70;;;36.70;20.60;;;;;;5096353;28;20549;-41
2022/03/28 11:47:59;;;;;;;16.00;14.60;;;36.60;19.80;;;;;;5104310;28;20180;-40
2022/03/28 11:50:31;;;;;;;12.70;11.70;;;36.80;20.00;;;;;;5107393;28;20718;-42
2022/03/28 11:52:57;;;;;;;13.90;12.80;;;36.80;20.30;;;;;;5106741;28;20775;-41
2022/03/28 11:55:26;;;;;;;15.03;13.67;;;37.00;20.40;;;;;;5109534;28;20469;-39
2022/03/28 12:00:39;;;;;;;14.83;13.63;;;37.40;20.90;;;;;;5110412;28;20459;-38
2022/03/28 12:03:05;;;;;;;14.70;13.40;;;37.40;20.90;;;;;;5108869;28;20555;-41
2022/03/28 12:05:39;;;;;;;14.23;13.00;;;37.40;21.00;;;;;;5109485;28;20479;-41
2022/03/28 12:08:17;;;;;;;12.87;11.87;;;37.60;20.20;;;;;;5109420;28;20689;-39
2022/03/28 12:10:52;;;;;;;12.63;11.63;;;37.80;20.90;;;;;;5111981;28;20778;-38
2022/03/28 12:13:19;;;;;;;12.40;11.40;;;37.90;21.80;;;;;;5110411;28;20447;-38
2022/03/28 12:15:48;;;;;;;12.33;11.23;;;38.10;21.40;;;;;;5111716;28;20459;-41
2022/03/28 12:18:16;;;;;;;16.70;15.17;;;38.30;21.50;;;;;;5109922;28;20401;-39
2022/03/28 12:20:47;;;;;;;16.00;14.60;;;38.40;20.50;;;;;;5109811;28;20709;-40
2022/03/28 12:23:15;;;;;;;19.33;17.43;;;38.40;20.90;;;;;;5110324;28;20684;-39
2022/03/28 12:25:47;;;;;;;20.03;18.00;;;38.30;21.20;;;;;;5110556;28;20422;-43
2022/03/28 12:28:18;;;;;;;14.37;13.17;;;38.30;21.40;;;;;;5109295;28;20549;-39
2022/03/28 12:30:50;;;;;;;20.20;18.20;;;38.30;21.70;;;;;;5109027;28;20399;-40
2022/03/28 12:33:28;;;;;;;16.50;15.23;;;38.40;21.40;;;;;;5108973;28;20845;-40
2022/03/28 12:36:22;;;;;;;20.50;18.60;;;38.60;21.50;;;;;;5108874;28;20471;-39
2022/03/28 12:39:00;;;;;;;16.33;14.87;;;38.60;21.40;;;;;;5110902;28;20407;-39
2022/03/28 12:41:27;;;;;;;18.33;16.50;;;38.70;21.80;;;;;;5110207;28;20416;-40